createdAt,value
2023-01-07T00:02:22.362Z,-27.61
2023-01-07T00:04:48.840Z,-27.61
2023-01-07T00:07:15.338Z,-27.62
2023-01-07T00:09:41.814Z,-27.63
2023-01-07T00:12:08.277Z,-27.60
2023-01-07T00:14:34.824Z,-27.56
2023-01-07T00:17:01.273Z,-27.57
2023-01-07T00:19:27.727Z,-27.59
2023-01-07T00:21:55.026Z,-27.60
2023-01-07T00:24:21.533Z,-27.66
2023-01-07T00:26:47.973Z,-27.68
2023-01-07T00:29:16.092Z,-27.73
2023-01-07T00:31:42.617Z,-27.74
2023-01-07T00:34:09.549Z,-27.73
2023-01-07T00:36:37.744Z,-27.67
2023-01-07T00:39:05.757Z,-27.67
2023-01-07T00:41:32.295Z,-27.70
2023-01-07T00:43:58.850Z,-27.69
2023-01-07T00:46:27.762Z,-27.68
2023-01-07T00:48:54.290Z,-27.63
2023-01-07T00:51:21.589Z,-27.57
2023-01-07T00:53:48.072Z,-27.61
2023-01-07T00:56:14.991Z,-27.67
2023-01-07T00:58:42.077Z,-27.74
2023-01-07T01:01:09.895Z,-27.87
2023-01-07T01:03:36.508Z,-27.89
2023-01-07T01:06:05.171Z,-27.93
2023-01-07T01:08:31.720Z,-27.95
2023-01-07T01:11:03.084Z,-27.96
2023-01-07T01:13:29.633Z,-27.96
2023-01-07T01:15:56.188Z,-27.98
2023-01-07T01:18:22.642Z,-27.97
2023-01-07T01:20:49.141Z,-27.94
2023-01-07T01:23:15.617Z,-27.99
2023-01-07T01:25:42.101Z,-28.01
2023-01-07T01:28:08.592Z,-28.02
2023-01-07T01:30:35.064Z,-28.02
2023-01-07T01:33:01.532Z,-28.01
2023-01-07T01:35:28.032Z,-27.92
2023-01-07T01:37:54.519Z,-27.86
2023-01-07T01:40:21.016Z,-27.86
2023-01-07T01:42:47.515Z,-27.81
2023-01-07T01:45:15.769Z,-27.79
2023-01-07T01:47:42.223Z,-27.81
2023-01-07T01:50:17.643Z,-27.79
2023-01-07T01:52:51.405Z,-27.76
2023-01-07T01:55:21.271Z,-27.76
2023-01-07T01:57:48.968Z,-27.78
2023-01-07T02:00:16.719Z,-27.81
2023-01-07T02:02:52.390Z,-27.83
2023-01-07T02:05:19.018Z,-27.83
2023-01-07T02:07:45.447Z,-27.86
2023-01-07T02:10:14.663Z,-27.93
2023-01-07T02:12:44.242Z,-27.92
2023-01-07T02:15:10.757Z,-27.89
2023-01-07T02:18:05.040Z,-27.82
2023-01-07T02:20:47.033Z,-27.83
2023-01-07T02:23:13.533Z,-27.91
2023-01-07T02:26:01.375Z,-27.91
2023-01-07T02:28:48.680Z,-27.92
2023-01-07T02:31:18.191Z,-27.93
2023-01-07T02:33:47.745Z,-27.96
2023-01-07T02:36:23.333Z,-27.95
2023-01-07T02:39:05.747Z,-27.98
2023-01-07T02:41:44.308Z,-28.05
2023-01-07T02:44:33.692Z,-28.09
2023-01-07T02:47:10.111Z,-28.10
2023-01-07T02:49:36.597Z,-28.19
2023-01-07T02:52:21.003Z,-28.22
2023-01-07T02:55:10.338Z,-28.24
2023-01-07T02:57:36.839Z,-28.31
2023-01-07T03:00:19.236Z,-28.35
2023-01-07T03:03:10.398Z,-28.45
2023-01-07T03:05:42.753Z,-28.48
2023-01-07T03:08:16.640Z,-28.50
2023-01-07T03:10:51.958Z,-28.46
2023-01-07T03:13:23.391Z,-28.43
2023-01-07T03:16:08.667Z,-28.53
2023-01-07T03:18:43.661Z,-28.59
2023-01-07T03:21:11.732Z,-28.64
2023-01-07T03:23:41.768Z,-28.73
2023-01-07T03:26:11.455Z,-28.78
2023-01-07T03:28:41.536Z,-28.82
2023-01-07T03:31:10.109Z,-28.88
2023-01-07T03:33:36.687Z,-28.91
2023-01-07T03:36:05.010Z,-28.94
2023-01-07T03:38:32.451Z,-29.00
2023-01-07T03:40:59.727Z,-29.02
2023-01-07T03:43:26.206Z,-29.04
2023-01-07T03:45:54.130Z,-29.09
2023-01-07T03:48:21.444Z,-29.14
2023-01-07T03:50:47.880Z,-29.18
2023-01-07T03:53:14.362Z,-29.24
2023-01-07T03:55:40.999Z,-29.24
2023-01-07T03:58:07.469Z,-29.25
2023-01-07T04:00:33.968Z,-29.34
2023-01-07T04:03:01.992Z,-29.37
2023-01-07T04:05:28.524Z,-29.41
2023-01-07T04:07:54.990Z,-29.41
2023-01-07T04:10:21.524Z,-29.45
2023-01-07T04:12:48.025Z,-29.46
2023-01-07T04:15:14.511Z,-29.47
2023-01-07T04:17:41.745Z,-29.47
2023-01-07T04:20:08.523Z,-29.42
2023-01-07T04:22:35.084Z,-29.37
2023-01-07T04:25:01.608Z,-29.34
2023-01-07T04:27:29.791Z,-29.32
2023-01-07T04:29:56.256Z,-29.34
2023-01-07T04:32:23.525Z,-29.36
2023-01-07T04:34:49.964Z,-29.38
2023-01-07T04:37:16.455Z,-29.37
2023-01-07T04:39:43.017Z,-29.35
2023-01-07T04:42:09.523Z,-29.37
2023-01-07T04:44:37.681Z,-29.39
2023-01-07T04:47:05.257Z,-29.43
2023-01-07T04:49:31.758Z,-29.47
2023-01-07T04:51:58.220Z,-29.52
2023-01-07T04:54:24.709Z,-29.58
2023-01-07T04:56:51.225Z,-29.59
2023-01-07T04:59:17.688Z,-29.57
2023-01-07T05:01:44.420Z,-29.61
2023-01-07T05:04:11.071Z,-29.62
2023-01-07T05:06:37.648Z,-29.59
2023-01-07T05:09:04.246Z,-29.54
2023-01-07T05:11:30.699Z,-29.58
2023-01-07T05:13:59.387Z,-29.59
2023-01-07T05:16:26.719Z,-29.66
2023-01-07T05:18:53.337Z,-29.70
2023-01-07T05:21:19.792Z,-29.68
2023-01-07T05:23:46.291Z,-29.66
2023-01-07T05:26:12.809Z,-29.67
2023-01-07T05:28:39.260Z,-29.71
2023-01-07T05:31:07.280Z,-29.69
2023-01-07T05:33:33.768Z,-29.70
2023-01-07T05:36:00.281Z,-29.71
2023-01-07T05:38:26.836Z,-29.71
2023-01-07T05:40:53.401Z,-29.69
2023-01-07T05:43:21.544Z,-29.68
2023-01-07T05:45:48.128Z,-29.70
2023-01-07T05:48:15.234Z,-29.70
2023-01-07T05:50:41.943Z,-29.69
2023-01-07T05:53:09.255Z,-29.66
2023-01-07T05:55:36.981Z,-29.64
2023-01-07T05:58:03.527Z,-29.61
2023-01-07T06:00:30.863Z,-29.58
2023-01-07T06:02:57.349Z,-29.54
2023-01-07T06:05:23.832Z,-29.45
2023-01-07T06:07:52.023Z,-29.44
2023-01-07T06:10:18.528Z,-29.43
2023-01-07T06:12:44.986Z,-29.33
2023-01-07T06:15:12.737Z,-29.23
2023-01-07T06:17:39.252Z,-29.20
2023-01-07T06:20:06.278Z,-29.24
2023-01-07T06:22:32.808Z,-29.28
2023-01-07T06:24:59.292Z,-29.27
2023-01-07T06:27:25.784Z,-29.20
2023-01-07T06:29:52.301Z,-29.24
2023-01-07T06:32:18.770Z,-29.31
2023-01-07T06:34:45.226Z,-29.38
2023-01-07T06:37:12.723Z,-29.34
2023-01-07T06:39:39.166Z,-29.24
2023-01-07T06:42:05.701Z,-29.19
2023-01-07T06:44:34.070Z,-29.22
2023-01-07T06:47:00.600Z,-29.22
2023-01-07T06:49:27.087Z,-29.20
2023-01-07T06:51:55.085Z,-29.14
2023-01-07T06:54:21.591Z,-29.09
2023-01-07T06:56:48.074Z,-29.06
2023-01-07T06:59:14.654Z,-29.00
2023-01-07T07:01:41.207Z,-28.96
2023-01-07T07:04:07.730Z,-28.88
2023-01-07T07:06:34.967Z,-28.78
2023-01-07T07:09:05.618Z,-28.61
2023-01-07T07:11:32.093Z,-28.44
2023-01-07T07:14:00.698Z,-28.39
2023-01-07T07:16:31.833Z,-28.47
2023-01-07T07:18:59.073Z,-28.52
2023-01-07T07:21:25.579Z,-28.49
2023-01-07T07:23:52.077Z,-28.54
2023-01-07T07:26:21.609Z,-28.50
2023-01-07T07:28:49.052Z,-28.41
2023-01-07T07:31:15.594Z,-28.30
2023-01-07T07:33:42.139Z,-28.22
2023-01-07T07:36:08.842Z,-28.15
2023-01-07T07:38:35.320Z,-28.05
2023-01-07T07:41:01.809Z,-27.98
2023-01-07T07:43:29.162Z,-27.89
2023-01-07T07:45:57.385Z,-27.82
2023-01-07T07:48:23.901Z,-27.67
2023-01-07T07:50:51.299Z,-27.46
2023-01-07T07:53:18.709Z,-27.26
2023-01-07T07:55:48.221Z,-27.02
2023-01-07T07:58:15.597Z,-26.80
2023-01-07T08:00:43.159Z,-26.69
2023-01-07T08:03:10.366Z,-26.52
2023-01-07T08:05:39.828Z,-26.48
2023-01-07T08:08:06.413Z,-26.42
2023-01-07T08:10:40.393Z,-26.27
2023-01-07T08:13:07.062Z,-26.15
2023-01-07T08:15:33.594Z,-26.10
2023-01-07T08:18:02.682Z,-26.00
2023-01-07T08:20:29.542Z,-26.03
2023-01-07T08:22:58.231Z,-26.13
2023-01-07T08:25:25.607Z,-26.11
2023-01-07T08:27:52.267Z,-26.06
2023-01-07T08:30:18.918Z,-26.21
2023-01-07T08:32:45.715Z,-26.16
2023-01-07T08:35:12.356Z,-26.20
2023-01-07T08:37:38.895Z,-26.13
2023-01-07T08:40:07.222Z,-26.06
2023-01-07T08:42:33.779Z,-25.99
2023-01-07T08:45:01.397Z,-25.95
2023-01-07T08:47:28.170Z,-25.97
2023-01-07T08:50:05.382Z,-25.93
2023-01-07T08:52:32.738Z,-25.84
2023-01-07T08:54:59.278Z,-25.75
2023-01-07T08:57:25.893Z,-25.66
2023-01-07T08:59:53.269Z,-25.62
2023-01-07T09:02:20.143Z,-25.63
2023-01-07T09:04:46.776Z,-25.61
2023-01-07T09:07:13.334Z,-25.56
2023-01-07T09:09:39.979Z,-25.57
2023-01-07T09:12:07.511Z,-25.59
2023-01-07T09:14:57.039Z,-25.57
2023-01-07T09:17:28.768Z,-25.65
2023-01-07T09:19:59.026Z,-25.63
2023-01-07T09:22:25.626Z,-24.41
2023-01-07T09:24:52.271Z,-23.88
2023-01-07T09:27:39.282Z,-23.83
2023-01-07T09:30:08.257Z,-23.34
2023-01-07T09:32:34.886Z,-23.23
2023-01-07T09:35:01.773Z,-23.18
2023-01-07T09:37:28.307Z,-23.16
2023-01-07T09:39:54.900Z,-22.96
2023-01-07T09:42:25.185Z,-22.91
2023-01-07T09:44:57.570Z,-22.86
2023-01-07T09:47:27.379Z,-22.76
2023-01-07T09:49:56.658Z,-22.66
2023-01-07T09:52:26.956Z,-22.44
2023-01-07T09:54:59.313Z,-22.77
2023-01-07T09:57:28.785Z,-22.45
2023-01-07T09:59:55.588Z,-22.28
2023-01-07T10:02:49.129Z,-22.49
2023-01-07T10:05:34.500Z,-22.27
2023-01-07T10:08:30.475Z,-21.19
2023-01-07T10:10:58.719Z,-20.72
2023-01-07T10:13:44.373Z,-20.82
2023-01-07T10:16:11.186Z,-21.06
2023-01-07T10:18:47.021Z,-20.92
2023-01-07T10:21:16.925Z,-20.33
2023-01-07T10:23:51.406Z,-19.51
2023-01-07T10:26:37.703Z,-18.77
2023-01-07T10:29:11.545Z,-18.29
2023-01-07T10:31:38.326Z,-17.77
2023-01-07T10:34:13.332Z,-17.68
2023-01-07T10:37:01.852Z,-17.23
2023-01-07T10:39:47.363Z,-17.26
2023-01-07T10:42:14.114Z,-17.33
2023-01-07T10:44:53.531Z,-17.24
2023-01-07T10:47:25.770Z,-16.81
2023-01-07T10:49:58.383Z,-16.38
2023-01-07T10:52:26.865Z,-16.21
2023-01-07T10:55:12.411Z,-16.52
2023-01-07T10:57:39.236Z,-16.32
2023-01-07T11:00:07.846Z,-16.26
2023-01-07T11:02:34.683Z,-16.25
2023-01-07T11:05:02.611Z,-16.39
2023-01-07T11:07:55.124Z,-16.35
2023-01-07T11:10:24.082Z,-17.25
2023-01-07T11:12:55.130Z,-17.62
2023-01-07T11:15:33.729Z,-17.78
2023-01-07T11:18:07.268Z,-17.94
2023-01-07T11:20:50.130Z,-18.31
2023-01-07T11:23:25.807Z,-18.70
2023-01-07T11:25:52.471Z,-19.07
2023-01-07T11:28:20.560Z,-19.39
2023-01-07T11:30:56.560Z,-19.63
2023-01-07T11:34:04.139Z,-19.60
2023-01-07T11:36:12.425Z,-19.71
2023-01-07T11:38:39.479Z,-20.02
2023-01-07T11:41:07.638Z,-19.84
2023-01-07T11:43:36.230Z,-19.92
2023-01-07T11:46:20.807Z,-21.03
2023-01-07T11:48:57.853Z,-20.94
2023-01-07T11:51:24.944Z,-21.48
2023-01-07T11:53:51.429Z,-21.95
2023-01-07T11:56:20.938Z,-22.07
2023-01-07T11:59:06.404Z,-21.97
2023-01-07T12:01:41.040Z,-21.63
2023-01-07T12:04:19.779Z,-21.65
2023-01-07T12:06:47.664Z,-20.98
2023-01-07T12:09:18.552Z,-19.93
2023-01-07T12:12:38.158Z,-19.81
2023-01-07T12:15:21.820Z,-19.90
2023-01-07T12:17:56.037Z,-20.06
2023-01-07T12:20:52.540Z,-20.11
2023-01-07T12:23:41.391Z,-20.69
2023-01-07T12:26:25.998Z,-21.63
2023-01-07T12:29:36.462Z,-22.62
2023-01-07T12:32:18.208Z,-23.58
2023-01-07T12:34:50.738Z,-23.95
2023-01-07T12:37:26.232Z,-24.30
2023-01-07T12:39:57.998Z,-24.45
2023-01-07T12:42:29.176Z,-24.71
2023-01-07T12:45:04.202Z,-24.72
2023-01-07T12:47:39.380Z,-24.96
2023-01-07T12:50:22.087Z,-24.99
2023-01-07T12:53:17.892Z,-25.08
2023-01-07T12:55:50.943Z,-25.19
2023-01-07T12:58:50.420Z,-25.22
2023-01-07T13:01:20.468Z,-25.36
2023-01-07T13:04:01.413Z,-25.43
2023-01-07T13:06:34.384Z,-25.53
2023-01-07T13:09:14.919Z,-25.70
2023-01-07T13:12:42.204Z,-25.84
2023-01-07T13:15:09.555Z,-25.80
2023-01-07T13:17:36.410Z,-25.75
2023-01-07T13:20:04.862Z,-25.75
2023-01-07T13:22:46.421Z,-25.62
2023-01-07T13:25:33.057Z,-25.62
2023-01-07T13:28:06.328Z,-25.66
2023-01-07T13:31:00.746Z,-25.66
2023-01-07T13:33:48.389Z,-25.64
2023-01-07T13:36:32.243Z,-25.85
2023-01-07T13:39:40.895Z,-25.77
2023-01-07T13:42:45.253Z,-25.93
2023-01-07T13:45:17.254Z,-26.09
2023-01-07T13:47:57.440Z,-26.02
2023-01-07T13:50:38.438Z,-26.07
2023-01-07T13:53:27.018Z,-26.15
2023-01-07T13:56:14.714Z,-26.18
2023-01-07T13:58:46.309Z,-26.28
2023-01-07T14:01:18.596Z,-26.33
2023-01-07T14:03:49.833Z,-26.28
2023-01-07T14:06:25.282Z,-26.22
2023-01-07T14:08:56.621Z,-26.27
2023-01-07T14:11:29.516Z,-26.30
2023-01-07T14:14:14.996Z,-26.30
2023-01-07T14:16:50.453Z,-26.36
2023-01-07T14:19:39.198Z,-26.35
2023-01-07T14:22:23.950Z,-26.41
2023-01-07T14:25:35.335Z,-26.47
2023-01-07T14:28:25.515Z,-26.52
2023-01-07T14:30:53.514Z,-26.65
2023-01-07T14:33:26.930Z,-26.57
2023-01-07T14:36:00.654Z,-26.64
2023-01-07T14:38:30.063Z,-26.57
2023-01-07T14:41:17.121Z,-26.64
2023-01-07T14:43:43.898Z,-26.65
2023-01-07T14:46:36.752Z,-26.63
2023-01-07T14:49:03.638Z,-26.64
2023-01-07T14:51:57.518Z,-26.62
2023-01-07T14:54:33.097Z,-26.64
2023-01-07T14:57:11.949Z,-26.62
2023-01-07T14:59:58.913Z,-26.69
2023-01-07T15:02:37.522Z,-26.65
2023-01-07T15:05:09.964Z,-26.66
2023-01-07T15:07:40.101Z,-26.88
2023-01-07T15:10:49.915Z,-26.64
2023-01-07T15:13:37.897Z,-26.68
2023-01-07T15:16:12.257Z,-26.77
2023-01-07T15:18:49.674Z,-26.69
2023-01-07T15:21:37.589Z,-26.66
2023-01-07T15:24:28.279Z,-26.67
2023-01-07T15:27:19.138Z,-26.77
2023-01-07T15:30:00.792Z,-26.80
2023-01-07T15:32:50.241Z,-26.84
2023-01-07T15:35:22.066Z,-26.93
2023-01-07T15:38:37.757Z,-27.29
2023-01-07T15:41:06.996Z,-27.19
2023-01-07T15:43:34.373Z,-27.12
2023-01-07T15:46:03.486Z,-27.06
2023-01-07T15:48:30.440Z,-27.11
2023-01-07T15:51:01.472Z,-27.25
2023-01-07T15:53:30.715Z,-27.05
2023-01-07T15:56:08.573Z,-27.08
2023-01-07T15:58:48.801Z,-27.64
2023-01-07T16:01:23.022Z,-27.26
2023-01-07T16:03:56.658Z,-27.39
2023-01-07T16:06:31.447Z,-27.39
2023-01-07T16:08:59.605Z,-27.40
2023-01-07T16:11:31.451Z,-27.49
2023-01-07T16:14:13.398Z,-27.43
2023-01-07T16:16:39.968Z,-27.34
2023-01-07T16:19:21.617Z,-27.27
2023-01-07T16:21:57.281Z,-27.11
2023-01-07T16:24:24.225Z,-27.11
2023-01-07T16:26:59.277Z,-26.73
2023-01-07T16:29:29.152Z,-26.57
2023-01-07T16:31:56.925Z,-26.43
2023-01-07T16:34:23.477Z,-26.31
2023-01-07T16:36:54.483Z,-26.38
2023-01-07T16:39:25.475Z,-26.27
2023-01-07T16:42:13.731Z,-26.23
2023-01-07T16:44:40.262Z,-26.28
2023-01-07T16:47:24.371Z,-26.27
2023-01-07T16:49:54.432Z,-26.37
2023-01-07T16:52:23.307Z,-26.31
2023-01-07T16:54:50.462Z,-26.21
2023-01-07T16:57:33.797Z,-26.24
2023-01-07T17:00:03.856Z,-26.26
2023-01-07T17:02:40.332Z,-26.27
2023-01-07T17:05:37.759Z,-26.24
2023-01-07T17:08:16.478Z,-26.27
2023-01-07T17:10:56.298Z,-26.20
2023-01-07T17:13:23.658Z,-26.21
2023-01-07T17:15:50.792Z,-26.33
2023-01-07T17:18:18.754Z,-26.28
2023-01-07T17:20:48.083Z,-26.20
2023-01-07T17:23:26.940Z,-26.14
2023-01-07T17:26:12.794Z,-26.44
2023-01-07T17:28:49.303Z,-26.33
2023-01-07T17:31:16.273Z,-26.31
2023-01-07T17:33:43.921Z,-26.55
2023-01-07T17:36:23.786Z,-26.37
2023-01-07T17:38:50.573Z,-26.30
2023-01-07T17:41:38.625Z,-26.19
2023-01-07T17:44:07.631Z,-26.17
2023-01-07T17:46:34.324Z,-26.18
2023-01-07T17:49:09.517Z,-26.14
2023-01-07T17:51:39.112Z,-25.91
2023-01-07T17:54:06.891Z,-25.85
2023-01-07T17:56:34.869Z,-25.93
2023-01-07T17:59:01.526Z,-25.92
2023-01-07T18:01:28.499Z,-25.84
2023-01-07T18:03:55.847Z,-25.82
2023-01-07T18:06:24.783Z,-25.85
2023-01-07T18:08:52.581Z,-25.81
2023-01-07T18:11:44.144Z,-25.59
2023-01-07T18:14:15.297Z,-25.51
2023-01-07T18:16:42.701Z,-25.59
2023-01-07T18:19:13.863Z,-25.52
2023-01-07T18:21:40.681Z,-25.38
2023-01-07T18:24:07.872Z,-25.42
2023-01-07T18:26:34.461Z,-25.11
2023-01-07T18:29:01.029Z,-25.08
2023-01-07T18:31:27.752Z,-24.96
2023-01-07T18:33:54.393Z,-24.89
2023-01-07T18:36:21.646Z,-24.91
2023-01-07T18:38:48.230Z,-25.25
2023-01-07T18:41:14.919Z,-25.01
2023-01-07T18:43:41.547Z,-25.12
2023-01-07T18:46:09.951Z,-24.92
2023-01-07T18:48:37.331Z,-24.89
2023-01-07T18:51:09.817Z,-24.87
2023-01-07T18:53:36.521Z,-24.91
2023-01-07T18:56:06.180Z,-25.00
2023-01-07T18:58:32.736Z,-25.09
2023-01-07T19:01:03.760Z,-24.89
2023-01-07T19:03:31.551Z,-25.00
2023-01-07T19:06:00.031Z,-24.92
2023-01-07T19:08:27.535Z,-25.00
2023-01-07T19:10:54.176Z,-24.90
2023-01-07T19:13:21.309Z,-24.95
2023-01-07T19:15:47.900Z,-24.84
2023-01-07T19:18:14.593Z,-24.83
2023-01-07T19:20:41.165Z,-24.73
2023-01-07T19:23:07.855Z,-24.79
2023-01-07T19:25:35.260Z,-24.73
2023-01-07T19:28:01.837Z,-24.63
2023-01-07T19:30:28.456Z,-24.60
2023-01-07T19:32:56.239Z,-24.54
2023-01-07T19:35:22.842Z,-24.63
2023-01-07T19:37:50.281Z,-24.43
2023-01-07T19:40:17.912Z,-24.43
2023-01-07T19:42:44.547Z,-24.27
2023-01-07T19:45:11.367Z,-24.18
2023-01-07T19:47:40.007Z,-24.01
2023-01-07T19:50:07.236Z,-24.07
2023-01-07T19:52:33.826Z,-23.86
2023-01-07T19:55:00.482Z,-23.77
2023-01-07T19:57:27.094Z,-23.74
2023-01-07T19:59:53.666Z,-23.61
2023-01-07T20:02:20.427Z,-23.57
2023-01-07T20:04:47.101Z,-23.57
2023-01-07T20:07:13.673Z,-23.53
2023-01-07T20:09:41.360Z,-23.52
2023-01-07T20:12:08.211Z,-23.54
2023-01-07T20:14:34.876Z,-23.42
2023-01-07T20:17:01.574Z,-23.28
2023-01-07T20:19:29.876Z,-23.30
2023-01-07T20:21:56.457Z,-23.54
2023-01-07T20:24:23.026Z,-23.22
2023-01-07T20:26:49.647Z,-23.34
2023-01-07T20:29:16.357Z,-23.12
2023-01-07T20:31:45.908Z,-23.21
2023-01-07T20:34:12.733Z,-23.24
2023-01-07T20:36:39.329Z,-23.38
2023-01-07T20:39:06.230Z,-23.24
2023-01-07T20:41:34.344Z,-23.15
2023-01-07T20:44:02.624Z,-23.23
2023-01-07T20:46:31.894Z,-23.07
2023-01-07T20:48:59.154Z,-23.11
2023-01-07T20:51:25.961Z,-23.31
2023-01-07T20:53:53.096Z,-23.04
2023-01-07T20:56:22.735Z,-23.13
2023-01-07T20:58:50.111Z,-23.07
2023-01-07T21:01:20.144Z,-22.89
2023-01-07T21:03:46.854Z,-23.07
2023-01-07T21:06:17.565Z,-23.18
2023-01-07T21:08:46.694Z,-22.78
2023-01-07T21:11:17.067Z,-22.77
2023-01-07T21:13:43.808Z,-22.85
2023-01-07T21:16:11.433Z,-22.62
2023-01-07T21:18:38.363Z,-22.67
2023-01-07T21:21:25.958Z,-22.53
2023-01-07T21:23:54.243Z,-22.57
2023-01-07T21:26:21.509Z,-22.55
2023-01-07T21:28:48.188Z,-22.49
2023-01-07T21:31:16.183Z,-22.44
2023-01-07T21:33:43.761Z,-22.48
2023-01-07T21:36:13.260Z,-22.52
2023-01-07T21:38:40.090Z,-22.38
2023-01-07T21:41:11.792Z,-22.31
2023-01-07T21:43:38.960Z,-22.39
2023-01-07T21:46:07.024Z,-22.37
2023-01-07T21:48:41.000Z,-22.69
2023-01-07T21:51:11.449Z,-22.35
2023-01-07T21:53:38.356Z,-22.25
2023-01-07T21:56:25.280Z,-22.24
2023-01-07T21:58:52.333Z,-22.30
2023-01-07T22:01:19.828Z,-22.78
2023-01-07T22:03:48.819Z,-22.43
2023-01-07T22:06:22.678Z,-22.49
2023-01-07T22:08:54.189Z,-22.59
2023-01-07T22:11:22.123Z,-22.75
2023-01-07T22:13:56.404Z,-22.61
2023-01-07T22:16:25.406Z,-22.53
2023-01-07T22:18:52.218Z,-22.46
2023-01-07T22:21:20.342Z,-22.66
2023-01-07T22:23:48.064Z,-22.61
2023-01-07T22:26:16.232Z,-22.53
2023-01-07T22:28:44.888Z,-22.54
2023-01-07T22:31:22.501Z,-22.57
2023-01-07T22:33:50.185Z,-22.53
2023-01-07T22:36:32.710Z,-22.76
2023-01-07T22:39:04.022Z,-22.63
2023-01-07T22:41:33.142Z,-22.67
2023-01-07T22:44:03.842Z,-22.87
2023-01-07T22:46:33.496Z,-22.92
2023-01-07T22:49:00.159Z,-22.90
2023-01-07T22:51:38.831Z,-22.93
2023-01-07T22:54:06.305Z,-22.97
2023-01-07T22:56:34.668Z,-23.02
2023-01-07T22:59:01.313Z,-23.16
2023-01-07T23:01:27.938Z,-22.97
2023-01-07T23:03:54.633Z,-23.08
2023-01-07T23:06:21.462Z,-23.38
2023-01-07T23:08:48.084Z,-23.18
2023-01-07T23:11:36.707Z,-23.23
2023-01-07T23:14:03.661Z,-23.22
2023-01-07T23:16:30.319Z,-23.36
2023-01-07T23:18:57.727Z,-23.22
2023-01-07T23:21:24.316Z,-23.22
2023-01-07T23:23:50.880Z,-23.18
2023-01-07T23:26:18.257Z,-23.17
2023-01-07T23:28:44.850Z,-23.30
2023-01-07T23:31:11.462Z,-23.23
2023-01-07T23:33:38.133Z,-23.03
2023-01-07T23:36:09.695Z,-23.02
2023-01-07T23:38:36.581Z,-22.92
2023-01-07T23:41:08.765Z,-22.89
2023-01-07T23:43:35.842Z,-22.97
2023-01-07T23:46:04.800Z,-22.66
2023-01-07T23:48:33.528Z,-23.14
2023-01-07T23:51:09.522Z,-22.67
2023-01-07T23:53:37.373Z,-22.52
2023-01-07T23:56:05.084Z,-22.46
2023-01-07T23:58:32.153Z,-22.45
